Time;durP1;ratioP1;P1;durP2;ratioP2;P2;SDS_P1;SDS_P2;PMS_P1;PMS_P2;Temp;Humidity;BMP_temperature;BMP_pressure;BME280_temperature;BME280_humidity;BME280_pressure;Samples;Min_cycle;Max_cycle;Signal;HPM_P1;HPM_P2
2022/06/04 00:00:29;;;;;;;6.35;5.75;;;;;;;;;;4981904;28;20141;-65
2022/06/04 00:02:55;;;;;;;7.22;6.20;;;;;;;;;;4984982;28;20113;-66
2022/06/04 00:05:22;;;;;;;6.47;5.50;;;;;;;;;;4985010;28;20050;-69
2022/06/04 00:07:50;;;;;;;9.05;6.30;;;;;;;;;;4989309;28;20040;-68
2022/06/04 00:15:48;;;;;;;6.35;5.63;;;;;;;;;;4985787;28;20044;-71
2022/06/04 00:18:14;;;;;;;6.70;5.93;;;;;;;;;;4969522;28;20124;-66
2022/06/04 00:20:40;;;;;;;6.22;5.60;;;;;;;;;;4989621;28;20121;-67
2022/06/04 00:23:06;;;;;;;6.43;5.82;;;;;;;;;;4987571;28;20034;-66
2022/06/04 00:25:33;;;;;;;6.35;5.50;;;;;;;;;;4989659;28;20029;-66
2022/06/04 00:27:59;;;;;;;8.85;5.90;;;;;;;;;;4991184;28;20080;-67
2022/06/04 00:30:25;;;;;;;5.78;5.30;;;;;;;;;;4986545;28;20026;-70
2022/06/04 00:32:50;;;;;;;6.72;5.57;;;;;;;;;;4990382;28;20026;-65
2022/06/04 00:35:16;;;;;;;7.10;6.20;;;;;;;;;;4988099;28;20041;-65
2022/06/04 00:37:41;;;;;;;6.93;5.97;;;;;;;;;;4989548;28;20121;-65
2022/06/04 00:40:08;;;;;;;8.13;6.38;;;;;;;;;;4989345;28;20073;-65
2022/06/04 00:42:33;;;;;;;8.48;6.70;;;;;;;;;;4985411;28;20034;-69
2022/06/04 00:45:14;;;;;;;6.78;6.03;;;;;;;;;;4988979;28;20022;-66
2022/06/04 00:47:40;;;;;;;6.88;6.25;;;;;;;;;;4986151;28;20022;-66
2022/06/04 00:50:08;;;;;;;7.30;6.60;;;;;;;;;;4987983;28;20050;-70
2022/06/04 00:52:34;;;;;;;7.72;6.20;;;;;;;;;;4991389;28;20622;-65
2022/06/04 00:54:59;;;;;;;7.10;6.00;;;;;;;;;;4988163;28;20034;-66
2022/06/04 00:57:27;;;;;;;6.47;5.88;;;;;;;;;;4986684;28;20050;-65
2022/06/04 00:59:56;;;;;;;9.57;6.65;;;;;;;;;;4992775;28;20037;-70
2022/06/04 01:02:21;;;;;;;6.95;5.60;;;;;;;;;;4988155;28;20763;-66
2022/06/04 01:04:53;;;;;;;7.32;6.10;;;;;;;;;;4987852;28;20026;-68
2022/06/04 01:07:37;;;;;;;7.38;6.45;;;;;;;;;;4988196;28;20030;-68
2022/06/04 01:10:21;;;;;;;6.32;5.32;;;;;;;;;;4989049;28;20358;-68
2022/06/04 01:13:21;;;;;;;6.43;5.82;;;;;;;;;;4986954;28;20065;-65
2022/06/04 01:16:13;;;;;;;7.03;6.10;;;;;;;;;;4952800;28;20225;-65
2022/06/04 01:18:49;;;;;;;6.80;6.20;;;;;;;;;;4957645;28;20053;-66
2022/06/04 01:21:20;;;;;;;8.95;6.60;;;;;;;;;;4981944;28;20457;-66
2022/06/04 01:23:55;;;;;;;8.10;6.75;;;;;;;;;;4978770;28;20072;-67
2022/06/04 01:26:39;;;;;;;6.55;5.95;;;;;;;;;;4988541;28;20029;-70
2022/06/04 01:29:18;;;;;;;6.25;5.65;;;;;;;;;;4987940;28;20030;-66
2022/06/04 01:31:48;;;;;;;6.65;6.00;;;;;;;;;;4984515;28;20033;-66
2022/06/04 01:34:17;;;;;;;7.22;6.40;;;;;;;;;;4989052;28;20196;-67
2022/06/04 01:36:44;;;;;;;7.03;6.38;;;;;;;;;;4985130;28;20473;-66
2022/06/04 01:39:13;;;;;;;7.15;6.55;;;;;;;;;;4989234;28;20025;-65
2022/06/04 01:41:50;;;;;;;7.07;6.38;;;;;;;;;;4987621;28;20041;-66
2022/06/04 01:44:21;;;;;;;9.77;6.40;;;;;;;;;;4986684;28;21428;-67
2022/06/04 01:46:51;;;;;;;7.40;5.97;;;;;;;;;;4973452;28;20113;-67
2022/06/04 01:49:16;;;;;;;;;;;;;;;;;;4981498;28;20378;-65
2022/06/04 01:51:42;;;;;;;7.60;6.20;;;;;;;;;;4991304;28;20773;-66
2022/06/04 01:54:14;;;;;;;6.90;6.00;;;;;;;;;;4988824;28;20064;-66
2022/06/04 01:56:42;;;;;;;6.88;6.18;;;;;;;;;;4988549;28;20517;-65
2022/06/04 01:59:16;;;;;;;9.82;6.65;;;;;;;;;;4983419;28;20026;-66
2022/06/04 02:01:42;;;;;;;6.75;6.05;;;;;;;;;;4985813;28;20033;-66
2022/06/04 02:04:09;;;;;;;8.02;6.65;;;;;;;;;;4985899;28;20073;-68
2022/06/04 02:06:46;;;;;;;8.90;7.05;;;;;;;;;;4986896;28;20026;-64
2022/06/04 02:09:13;;;;;;;7.30;6.60;;;;;;;;;;4977989;28;20038;-70
2022/06/04 02:11:43;;;;;;;6.88;6.15;;;;;;;;;;4985679;28;20045;-68
2022/06/04 02:14:09;;;;;;;6.30;5.70;;;;;;;;;;4987352;28;20025;-65
2022/06/04 02:16:43;;;;;;;7.03;6.32;;;;;;;;;;4986729;28;20045;-68
2022/06/04 02:19:09;;;;;;;7.22;6.63;;;;;;;;;;4987666;28;20034;-64
2022/06/04 02:21:35;;;;;;;7.60;6.90;;;;;;;;;;4988066;28;20030;-69
2022/06/04 02:24:00;;;;;;;7.40;6.13;;;;;;;;;;4985388;28;20022;-65
2022/06/04 02:26:26;;;;;;;7.07;5.88;;;;;;;;;;4988517;28;20022;-66
2022/06/04 02:28:52;;;;;;;6.47;5.88;;;;;;;;;;4985550;28;20022;-66
2022/06/04 02:31:24;;;;;;;9.65;6.50;;;;;;;;;;4985967;28;20084;-67
2022/06/04 02:33:53;;;;;;;7.50;6.75;;;;;;;;;;4986614;28;20041;-65
2022/06/04 02:36:24;;;;;;;8.77;6.68;;;;;;;;;;5006239;28;20037;-66
2022/06/04 02:39:09;;;;;;;7.75;6.95;;;;;;;;;;4987104;28;21178;-65
2022/06/04 02:41:54;;;;;;;7.88;7.07;;;;;;;;;;4986482;28;20037;-65
2022/06/04 02:44:20;;;;;;;7.50;6.70;;;;;;;;;;4986702;28;20042;-70
2022/06/04 02:46:49;;;;;;;7.05;6.38;;;;;;;;;;4986390;28;20049;-67
2022/06/04 02:49:23;;;;;;;7.68;6.88;;;;;;;;;;4986029;28;20415;-65
2022/06/04 02:51:51;;;;;;;11.38;6.93;;;;;;;;;;4983369;28;20022;-65
2022/06/04 02:54:19;;;;;;;10.07;6.47;;;;;;;;;;4985809;28;20029;-65
2022/06/04 02:56:45;;;;;;;7.90;7.10;;;;;;;;;;4986381;28;20386;-65
2022/06/04 02:59:12;;;;;;;10.18;7.70;;;;;;;;;;4985979;28;20030;-65
2022/06/04 03:01:41;;;;;;;7.88;7.00;;;;;;;;;;4990865;28;20335;-69
2022/06/04 03:04:07;;;;;;;9.18;7.20;;;;;;;;;;4986432;28;20022;-66
2022/06/04 03:06:32;;;;;;;8.00;6.95;;;;;;;;;;4986800;28;20042;-67
2022/06/04 03:08:59;;;;;;;7.30;6.60;;;;;;;;;;4982418;28;20030;-72
2022/06/04 03:11:26;;;;;;;7.32;6.20;;;;;;;;;;4975737;28;20331;-66
2022/06/04 03:13:51;;;;;;;7.85;7.07;;;;;;;;;;4981679;28;20041;-64
2022/06/04 03:16:16;;;;;;;8.55;7.70;;;;;;;;;;4985767;28;20022;-64
2022/06/04 03:18:42;;;;;;;7.82;7.05;;;;;;;;;;4985623;28;20064;-68
2022/06/04 03:21:07;;;;;;;7.75;6.95;;;;;;;;;;4985099;28;20092;-65
2022/06/04 03:23:33;;;;;;;8.82;6.28;;;;;;;;;;4985136;28;20038;-71
2022/06/04 03:25:58;;;;;;;7.40;6.47;;;;;;;;;;4986882;28;20537;-67
2022/06/04 03:28:23;;;;;;;8.82;7.20;;;;;;;;;;4988120;28;20042;-66
2022/06/04 03:30:49;;;;;;;7.88;7.07;;;;;;;;;;4986812;28;20030;-69
2022/06/04 03:33:15;;;;;;;8.30;7.50;;;;;;;;;;4983164;28;20672;-67
2022/06/04 03:35:42;;;;;;;8.80;7.97;;;;;;;;;;4987688;28;20026;-65
2022/06/04 03:38:07;;;;;;;8.90;8.00;;;;;;;;;;4991821;28;20049;-65
2022/06/04 03:40:33;;;;;;;9.85;6.82;;;;;;;;;;4989217;28;20085;-65
2022/06/04 03:42:58;;;;;;;9.60;8.15;;;;;;;;;;4990518;28;20038;-67
2022/06/04 03:45:26;;;;;;;8.85;7.93;;;;;;;;;;4988776;28;20022;-68
2022/06/04 03:47:52;;;;;;;9.43;8.48;;;;;;;;;;4991452;28;20022;-70
2022/06/04 03:50:18;;;;;;;11.38;8.15;;;;;;;;;;4984678;28;20079;-70
2022/06/04 03:52:44;;;;;;;8.75;7.55;;;;;;;;;;4978172;28;20034;-67
2022/06/04 03:55:10;;;;;;;9.80;8.32;;;;;;;;;;4980260;28;20022;-65
2022/06/04 03:57:48;;;;;;;12.15;6.72;;;;;;;;;;4980678;28;20046;-70
2022/06/04 04:00:27;;;;;;;10.35;7.55;;;;;;;;;;4983125;28;20033;-64
2022/06/04 04:02:53;;;;;;;8.30;7.50;;;;;;;;;;4980824;28;20040;-68
2022/06/04 04:05:21;;;;;;;8.82;7.45;;;;;;;;;;4985592;28;20061;-66
2022/06/04 04:07:46;;;;;;;11.38;7.72;;;;;;;;;;4992238;28;20130;-65
2022/06/04 04:10:12;;;;;;;8.98;7.13;;;;;;;;;;4999604;28;20062;-67
2022/06/04 04:12:37;;;;;;;8.23;7.40;;;;;;;;;;4998608;28;20014;-67
2022/06/04 04:15:03;;;;;;;7.90;7.10;;;;;;;;;;4988731;28;20026;-72
2022/06/04 04:17:28;;;;;;;7.82;7.03;;;;;;;;;;4985412;28;20057;-65
2022/06/04 04:19:54;;;;;;;9.93;7.18;;;;;;;;;;4985710;28;20460;-64
2022/06/04 04:22:19;;;;;;;7.35;6.65;;;;;;;;;;4975457;28;20030;-64
2022/06/04 04:24:45;;;;;;;8.98;7.15;;;;;;;;;;4984262;28;20134;-64
2022/06/04 04:27:11;;;;;;;10.90;7.90;;;;;;;;;;4990645;28;20030;-67
2022/06/04 04:29:37;;;;;;;8.20;7.40;;;;;;;;;;4982822;28;20026;-66
2022/06/04 04:32:02;;;;;;;10.18;7.10;;;;;;;;;;4975521;28;20022;-67
2022/06/04 04:34:28;;;;;;;8.73;7.82;;;;;;;;;;4980829;28;20030;-70
2022/06/04 04:36:53;;;;;;;7.85;7.15;;;;;;;;;;4975384;28;20097;-72
2022/06/04 04:39:18;;;;;;;11.18;8.32;;;;;;;;;;4988183;28;20040;-64
2022/06/04 04:41:44;;;;;;;7.40;6.70;;;;;;;;;;4980935;28;20117;-67
2022/06/04 04:44:09;;;;;;;8.00;7.00;;;;;;;;;;4974635;28;20037;-67
2022/06/04 04:46:34;;;;;;;8.77;7.35;;;;;;;;;;4979556;28;20404;-66
2022/06/04 04:49:00;;;;;;;8.30;7.47;;;;;;;;;;4977575;28;20460;-71
2022/06/04 04:51:26;;;;;;;9.63;7.65;;;;;;;;;;4979393;28;20061;-67
2022/06/04 04:53:52;;;;;;;8.65;7.85;;;;;;;;;;4981289;28;20022;-66
2022/06/04 04:56:18;;;;;;;8.40;7.60;;;;;;;;;;4977194;28;20070;-68
2022/06/04 04:58:43;;;;;;;11.60;7.07;;;;;;;;;;4983386;28;21172;-66
2022/06/04 05:01:20;;;;;;;8.98;6.90;;;;;;;;;;4975270;28;20041;-68
2022/06/04 05:03:45;;;;;;;8.60;7.38;;;;;;;;;;4977207;28;20026;-67
2022/06/04 05:06:12;;;;;;;8.35;7.55;;;;;;;;;;4980078;28;20123;-69
2022/06/04 05:08:38;;;;;;;10.50;8.48;;;;;;;;;;4975818;28;20509;-68
2022/06/04 05:11:12;;;;;;;8.75;7.78;;;;;;;;;;4986383;28;20144;-68
2022/06/04 05:13:37;;;;;;;8.45;7.57;;;;;;;;;;4987272;28;20037;-68
2022/06/04 05:16:03;;;;;;;9.30;7.88;;;;;;;;;;4975107;28;20022;-67
2022/06/04 05:18:28;;;;;;;10.38;8.20;;;;;;;;;;4978068;28;20038;-70
2022/06/04 05:20:53;;;;;;;16.08;8.25;;;;;;;;;;4984478;28;20461;-68
2022/06/04 05:23:19;;;;;;;10.15;8.45;;;;;;;;;;4985771;28;20322;-73
2022/06/04 05:25:44;;;;;;;8.52;7.72;;;;;;;;;;4985363;28;20026;-70
2022/06/04 05:28:10;;;;;;;8.57;7.43;;;;;;;;;;4989024;28;20070;-73
2022/06/04 05:30:35;;;;;;;9.25;8.32;;;;;;;;;;4987494;28;20133;-73
2022/06/04 05:33:01;;;;;;;9.00;7.43;;;;;;;;;;4978672;28;20050;-69
2022/06/04 05:35:26;;;;;;;8.55;7.82;;;;;;;;;;4978478;28;20033;-69
2022/06/04 05:37:52;;;;;;;8.40;7.60;;;;;;;;;;4977955;28;20492;-69
2022/06/04 05:40:17;;;;;;;9.20;8.30;;;;;;;;;;4973561;28;20030;-68
2022/06/04 05:42:42;;;;;;;9.05;7.50;;;;;;;;;;4973837;28;20022;-68
2022/06/04 05:45:08;;;;;;;11.23;9.27;;;;;;;;;;4974634;28;20022;-73
2022/06/04 05:47:34;;;;;;;10.90;9.45;;;;;;;;;;4974718;28;20080;-73
2022/06/04 05:49:59;;;;;;;9.68;8.70;;;;;;;;;;4971936;28;20029;-68
2022/06/04 05:52:25;;;;;;;8.93;8.02;;;;;;;;;;4972472;28;20065;-65
2022/06/04 05:54:50;;;;;;;9.77;8.75;;;;;;;;;;4973368;28;20053;-65
2022/06/04 05:57:15;;;;;;;9.07;8.18;;;;;;;;;;4987795;28;21533;-71
2022/06/04 05:59:41;;;;;;;10.20;8.48;;;;;;;;;;4970753;28;20187;-66
2022/06/04 06:02:06;;;;;;;9.32;8.38;;;;;;;;;;4989754;28;20473;-67
2022/06/04 06:04:32;;;;;;;9.25;8.32;;;;;;;;;;4987651;28;20021;-70
2022/06/04 06:06:59;;;;;;;9.43;8.52;;;;;;;;;;4991911;28;20453;-71
2022/06/04 06:09:25;;;;;;;10.65;9.15;;;;;;;;;;4964446;28;20441;-68
2022/06/04 06:11:51;;;;;;;9.60;8.60;;;;;;;;;;4973038;28;20105;-65
2022/06/04 06:14:16;;;;;;;10.57;9.30;;;;;;;;;;4978149;28;20030;-67
2022/06/04 06:16:43;;;;;;;11.48;9.20;;;;;;;;;;4973937;28;20026;-69
2022/06/04 06:19:09;;;;;;;11.43;8.30;;;;;;;;;;4987175;28;20413;-65
2022/06/04 06:21:35;;;;;;;10.10;8.40;;;;;;;;;;4986495;28;20038;-67
2022/06/04 06:24:00;;;;;;;9.18;8.02;;;;;;;;;;4983762;28;20025;-66
2022/06/04 06:26:27;;;;;;;11.40;8.88;;;;;;;;;;4989593;28;20108;-71
2022/06/04 06:28:53;;;;;;;9.27;8.23;;;;;;;;;;4976582;28;20096;-71
2022/06/04 06:31:20;;;;;;;9.80;8.25;;;;;;;;;;4986849;28;20034;-72
2022/06/04 06:33:45;;;;;;;9.25;7.68;;;;;;;;;;4988093;28;20018;-69
2022/06/04 06:36:12;;;;;;;8.93;7.38;;;;;;;;;;4989476;28;20028;-69
2022/06/04 06:38:38;;;;;;;8.27;6.88;;;;;;;;;;4990192;28;20030;-69
2022/06/04 06:41:04;;;;;;;9.73;6.88;;;;;;;;;;4988930;28;20017;-69
2022/06/04 06:46:18;;;;;;;7.63;6.68;;;;;;;;;;4984425;28;20107;-69
2022/06/04 06:48:44;;;;;;;8.25;6.95;;;;;;;;;;4977243;28;20034;-71
2022/06/04 06:51:12;;;;;;;8.10;6.65;;;;;;;;;;4986997;28;20339;-68
2022/06/04 06:53:37;;;;;;;10.10;6.70;;;;;;;;;;4984958;28;20034;-70
2022/06/04 06:56:10;;;;;;;7.75;6.53;;;;;;;;;;4977244;28;20101;-69
2022/06/04 06:58:35;;;;;;;9.00;6.53;;;;;;;;;;4974962;28;20026;-71
2022/06/04 07:01:01;;;;;;;7.10;6.40;;;;;;;;;;4983142;28;20334;-68
2022/06/04 07:03:26;;;;;;;6.85;6.15;;;;;;;;;;4989498;28;20367;-67
2022/06/04 07:05:55;;;;;;;7.45;6.10;;;;;;;;;;4993769;28;20022;-69
2022/06/04 07:08:21;;;;;;;7.35;6.03;;;;;;;;;;4988184;28;20350;-72
2022/06/04 07:10:46;;;;;;;7.53;6.82;;;;;;;;;;4989956;28;20428;-68
2022/06/04 07:13:11;;;;;;;6.93;6.22;;;;;;;;;;4987921;28;20025;-68
2022/06/04 07:15:37;;;;;;;7.03;6.32;;;;;;;;;;4990321;28;20068;-68
2022/06/04 07:18:02;;;;;;;8.63;6.32;;;;;;;;;;4981129;28;20162;-70
2022/06/04 07:20:27;;;;;;;8.45;6.68;;;;;;;;;;4993092;28;20109;-69
2022/06/04 07:22:53;;;;;;;7.18;6.30;;;;;;;;;;4990876;28;20022;-71
2022/06/04 07:25:21;;;;;;;7.97;6.72;;;;;;;;;;4990381;28;20440;-68
2022/06/04 07:27:46;;;;;;;7.65;6.65;;;;;;;;;;4990471;28;20017;-67
2022/06/04 07:30:12;;;;;;;8.32;6.22;;;;;;;;;;4984436;28;20160;-68
2022/06/04 07:32:37;;;;;;;7.30;6.38;;;;;;;;;;4982034;28;20054;-74
2022/06/04 07:35:02;;;;;;;8.88;7.03;;;;;;;;;;4979708;28;20022;-68
2022/06/04 07:37:28;;;;;;;7.47;6.68;;;;;;;;;;4991281;28;20462;-67
2022/06/04 07:39:53;;;;;;;6.30;5.80;;;;;;;;;;4972243;28;20026;-70
2022/06/04 07:42:19;;;;;;;6.93;5.93;;;;;;;;;;4982418;28;20041;-67
2022/06/04 07:44:44;;;;;;;7.57;6.53;;;;;;;;;;4992364;28;20030;-66
2022/06/04 07:47:09;;;;;;;7.68;6.25;;;;;;;;;;4990534;28;20030;-67
2022/06/04 07:49:35;;;;;;;6.78;6.07;;;;;;;;;;4987707;28;20103;-68
2022/06/04 07:52:00;;;;;;;11.20;7.13;;;;;;;;;;4984847;28;20030;-68
2022/06/04 07:54:26;;;;;;;7.68;6.25;;;;;;;;;;4981021;28;20022;-66
2022/06/04 07:56:53;;;;;;;9.40;6.00;;;;;;;;;;4985305;28;20074;-71
2022/06/04 07:59:19;;;;;;;9.77;6.30;;;;;;;;;;4992476;28;20513;-68
2022/06/04 08:01:45;;;;;;;8.80;6.57;;;;;;;;;;4993295;28;20185;-68
2022/06/04 08:04:11;;;;;;;9.77;6.90;;;;;;;;;;4988083;28;20034;-68
2022/06/04 08:06:36;;;;;;;7.57;6.38;;;;;;;;;;4977328;28;20028;-74
2022/06/04 08:09:01;;;;;;;7.90;6.20;;;;;;;;;;5006741;28;20044;-70
2022/06/04 08:11:35;;;;;;;6.47;5.80;;;;;;;;;;4988621;28;20747;-70
2022/06/04 08:14:05;;;;;;;8.77;6.00;;;;;;;;;;4991736;28;20121;-68
2022/06/04 08:16:31;;;;;;;6.03;5.43;;;;;;;;;;4982108;28;20104;-69
2022/06/04 08:18:56;;;;;;;6.85;6.10;;;;;;;;;;4977753;28;20437;-69
2022/06/04 08:21:22;;;;;;;7.55;5.88;;;;;;;;;;4972433;28;20030;-69
2022/06/04 08:23:47;;;;;;;7.78;6.00;;;;;;;;;;4973449;28;20030;-69
2022/06/04 08:26:13;;;;;;;6.35;5.70;;;;;;;;;;4986907;28;20458;-69
2022/06/04 08:28:38;;;;;;;6.60;5.72;;;;;;;;;;4990468;28;20037;-72
2022/06/04 08:31:05;;;;;;;6.05;5.45;;;;;;;;;;4986018;28;20105;-69
2022/06/04 08:33:30;;;;;;;8.18;5.85;;;;;;;;;;4977854;28;20513;-69
2022/06/04 08:35:56;;;;;;;5.85;5.28;;;;;;;;;;4986845;28;20030;-69
2022/06/04 08:38:21;;;;;;;7.80;5.82;;;;;;;;;;4978115;28;20022;-69
2022/06/04 08:40:55;;;;;;;6.80;6.05;;;;;;;;;;4982827;28;20045;-67
2022/06/04 08:43:41;;;;;;;5.72;5.15;;;;;;;;;;4982421;28;20045;-66
2022/06/04 08:46:15;;;;;;;7.47;6.05;;;;;;;;;;4982436;28;20033;-72
2022/06/04 08:48:41;;;;;;;7.25;5.80;;;;;;;;;;4976557;28;20030;-68
2022/06/04 08:51:15;;;;;;;5.90;5.40;;;;;;;;;;4975544;28;20062;-68
2022/06/04 08:53:40;;;;;;;6.00;5.13;;;;;;;;;;4978283;28;20050;-70
2022/06/04 08:59:17;;;;;;;5.35;4.85;;;;;;;;;;4976744;28;20040;-66
2022/06/04 09:01:45;;;;;;;6.03;4.72;;;;;;;;;;4974946;28;20042;-67
2022/06/04 09:04:16;;;;;;;5.60;4.80;;;;;;;;;;4978267;28;20029;-70
2022/06/04 09:07:00;;;;;;;6.38;5.70;;;;;;;;;;4977638;28;20026;-67
2022/06/04 09:09:31;;;;;;;7.13;5.50;;;;;;;;;;4976851;28;20330;-68
2022/06/04 09:12:00;;;;;;;5.93;5.10;;;;;;;;;;4975420;28;20021;-67
2022/06/04 09:14:38;;;;;;;5.65;5.15;;;;;;;;;;4974924;28;20034;-70
2022/06/04 09:17:08;;;;;;;6.70;5.30;;;;;;;;;;4974760;28;20033;-66
2022/06/04 09:19:34;;;;;;;5.82;5.22;;;;;;;;;;4976302;28;20457;-67
2022/06/04 09:22:01;;;;;;;5.28;4.78;;;;;;;;;;4978331;28;20535;-66
2022/06/04 09:24:26;;;;;;;5.80;4.47;;;;;;;;;;4975633;28;20423;-71
2022/06/04 09:27:05;;;;;;;6.57;5.07;;;;;;;;;;4961677;28;20050;-72
2022/06/04 09:29:51;;;;;;;4.90;4.45;;;;;;;;;;4978808;28;20425;-69
2022/06/04 09:32:22;;;;;;;7.53;4.65;;;;;;;;;;4969898;28;20122;-67
2022/06/04 09:34:49;;;;;;;7.10;5.07;;;;;;;;;;4973476;28;20061;-70
2022/06/04 09:37:15;;;;;;;7.95;5.05;;;;;;;;;;4970970;28;20064;-68
2022/06/04 09:39:42;;;;;;;7.60;5.10;;;;;;;;;;4976395;28;20105;-71
2022/06/04 09:42:13;;;;;;;7.38;5.20;;;;;;;;;;4974620;28;20058;-68
2022/06/04 09:45:08;;;;;;;5.25;4.75;;;;;;;;;;4977372;28;20045;-66
2022/06/04 09:47:41;;;;;;;5.50;4.50;;;;;;;;;;4968437;28;20034;-74
2022/06/04 09:50:21;;;;;;;4.60;4.15;;;;;;;;;;4977771;28;20046;-69
2022/06/04 09:52:55;;;;;;;5.22;4.32;;;;;;;;;;4980368;28;20029;-67
2022/06/04 09:55:22;;;;;;;5.65;4.63;;;;;;;;;;4980731;28;20100;-69
2022/06/04 09:57:55;;;;;;;5.18;4.15;;;;;;;;;;4979782;28;20049;-67
2022/06/04 10:00:24;;;;;;;6.20;4.28;;;;;;;;;;4981958;28;20034;-69
2022/06/04 10:02:53;;;;;;;4.85;4.07;;;;;;;;;;4974881;28;20026;-69
2022/06/04 10:05:20;;;;;;;4.70;4.25;;;;;;;;;;4988562;28;20065;-70
2022/06/04 10:07:45;;;;;;;4.82;4.30;;;;;;;;;;4984932;28;20406;-73
2022/06/04 10:10:18;;;;;;;5.53;3.78;;;;;;;;;;4976449;28;20030;-72
2022/06/04 10:15:30;;;;;;;5.38;4.10;;;;;;;;;;4980516;28;20114;-70
2022/06/04 10:18:19;;;;;;;4.60;3.75;;;;;;;;;;4976552;28;20036;-70
2022/06/04 10:20:55;;;;;;;7.13;4.72;;;;;;;;;;4969429;28;20072;-70
2022/06/04 10:23:21;;;;;;;4.07;3.47;;;;;;;;;;4977492;28;20034;-72
2022/06/04 10:26:07;;;;;;;5.78;3.78;;;;;;;;;;4981749;28;20045;-70
2022/06/04 10:28:51;;;;;;;4.75;3.67;;;;;;;;;;4976594;28;20038;-70
2022/06/04 10:31:17;;;;;;;5.85;4.00;;;;;;;;;;4983268;28;20026;-68
2022/06/04 10:34:01;;;;;;;5.90;4.05;;;;;;;;;;4976711;28;20413;-69
2022/06/04 10:36:26;;;;;;;5.22;3.72;;;;;;;;;;4980708;28;20049;-72
2022/06/04 10:38:51;;;;;;;4.47;4.07;;;;;;;;;;4988666;28;20042;-70
2022/06/04 10:41:22;;;;;;;4.05;3.65;;;;;;;;;;4990340;28;20380;-72
2022/06/04 10:43:54;;;;;;;3.55;3.25;;;;;;;;;;4989079;28;20026;-73
2022/06/04 10:46:19;;;;;;;4.20;3.20;;;;;;;;;;4985471;28;20178;-70
2022/06/04 10:48:57;;;;;;;3.60;3.05;;;;;;;;;;4989670;28;20509;-71
2022/06/04 10:51:37;;;;;;;4.05;3.35;;;;;;;;;;4991781;28;20022;-70
2022/06/04 10:54:09;;;;;;;4.90;3.15;;;;;;;;;;4987543;28;20047;-71
2022/06/04 10:56:42;;;;;;;5.13;3.10;;;;;;;;;;4988506;28;20041;-75
2022/06/04 10:59:23;;;;;;;6.65;3.45;;;;;;;;;;4989425;28;20034;-70
2022/06/04 11:02:00;;;;;;;4.20;3.33;;;;;;;;;;4976051;28;20038;-71
2022/06/04 11:04:35;;;;;;;5.50;3.60;;;;;;;;;;4990216;28;20573;-69
2022/06/04 11:07:19;;;;;;;4.85;4.07;;;;;;;;;;4989642;28;20036;-70
2022/06/04 11:09:44;;;;;;;3.88;3.28;;;;;;;;;;4988221;28;20034;-72
2022/06/04 11:12:09;;;;;;;5.65;3.25;;;;;;;;;;4988467;28;20300;-75
2022/06/04 11:14:38;;;;;;;3.20;2.90;;;;;;;;;;4990112;28;20034;-74
2022/06/04 11:17:21;;;;;;;4.93;3.42;;;;;;;;;;4989427;28;20256;-71
2022/06/04 11:19:55;;;;;;;3.92;3.53;;;;;;;;;;4987102;28;20038;-72
2022/06/04 11:22:31;;;;;;;4.07;3.28;;;;;;;;;;4988126;28;20074;-71
2022/06/04 11:25:02;;;;;;;3.75;3.13;;;;;;;;;;4989047;28;20026;-70
2022/06/04 11:27:31;;;;;;;5.22;3.58;;;;;;;;;;4989223;28;20510;-71
2022/06/04 11:29:57;;;;;;;3.72;3.22;;;;;;;;;;4985110;28;20089;-72
2022/06/04 11:32:26;;;;;;;5.03;3.50;;;;;;;;;;4986855;28;20031;-70
2022/06/04 11:35:10;;;;;;;4.65;3.60;;;;;;;;;;4987565;28;20030;-69
2022/06/04 11:38:02;;;;;;;6.70;3.88;;;;;;;;;;4985431;28;20026;-72
2022/06/04 11:40:39;;;;;;;4.40;3.20;;;;;;;;;;4986740;28;20026;-71
2022/06/04 11:43:17;;;;;;;4.07;3.58;;;;;;;;;;4988527;28;20030;-69
2022/06/04 11:45:42;;;;;;;3.87;3.57;;;;;;;;;;4988934;28;20027;-70
2022/06/04 11:48:22;;;;;;;4.53;3.20;;;;;;;;;;4970460;28;20260;-70
2022/06/04 11:50:54;;;;;;;4.65;3.22;;;;;;;;;;4990492;28;20109;-72
2022/06/04 11:53:19;;;;;;;3.35;2.70;;;;;;;;;;4991426;28;20034;-72
2022/06/04 11:55:53;;;;;;;3.92;3.17;;;;;;;;;;4991973;28;20331;-70
2022/06/04 11:58:27;;;;;;;3.88;2.90;;;;;;;;;;4995149;28;20038;-70
2022/06/04 12:00:56;;;;;;;5.15;3.22;;;;;;;;;;4991243;28;20501;-69
2022/06/04 12:03:24;;;;;;;5.05;2.92;;;;;;;;;;4992206;28;20112;-71
2022/06/04 12:05:49;;;;;;;5.88;4.15;;;;;;;;;;4989839;28;20093;-70
2022/06/04 12:08:20;;;;;;;4.35;3.28;;;;;;;;;;4992295;28;20410;-73
2022/06/04 12:10:54;;;;;;;4.35;3.25;;;;;;;;;;4988868;28;20034;-70
2022/06/04 12:13:28;;;;;;;3.20;2.83;;;;;;;;;;4992964;28;20034;-70
2022/06/04 12:15:57;;;;;;;4.07;2.92;;;;;;;;;;4991842;28;20026;-74
2022/06/04 12:18:23;;;;;;;3.70;3.25;;;;;;;;;;4990239;28;20027;-70
2022/06/04 12:24:16;;;;;;;2.78;2.58;;;;;;;;;;4984889;28;20125;-70
2022/06/04 12:26:47;;;;;;;4.20;2.85;;;;;;;;;;4991884;28;20022;-70
2022/06/04 12:29:27;;;;;;;4.00;3.05;;;;;;;;;;4992585;28;20192;-70
2022/06/04 12:32:18;;;;;;;3.50;2.60;;;;;;;;;;4984891;28;20185;-73
2022/06/04 12:34:44;;;;;;;3.30;3.00;;;;;;;;;;4983916;28;20034;-70
2022/06/04 12:37:42;;;;;;;4.35;2.80;;;;;;;;;;4983446;28;20022;-69
2022/06/04 12:40:16;;;;;;;8.05;2.90;;;;;;;;;;4971887;28;20041;-75
2022/06/04 12:42:45;;;;;;;5.60;3.35;;;;;;;;;;4979524;28;20030;-69
2022/06/04 12:45:34;;;;;;;4.80;3.00;;;;;;;;;;4982849;28;20050;-69
2022/06/04 12:47:59;;;;;;;2.70;2.45;;;;;;;;;;4989557;28;20364;-70
2022/06/04 12:50:34;;;;;;;3.22;2.50;;;;;;;;;;4986873;28;20038;-69
2022/06/04 12:53:12;;;;;;;3.17;2.72;;;;;;;;;;4960839;28;20331;-73
2022/06/04 12:55:57;;;;;;;2.75;2.55;;;;;;;;;;4976719;28;20033;-71
2022/06/04 12:58:24;;;;;;;4.43;2.80;;;;;;;;;;4985916;28;20060;-71
2022/06/04 13:00:59;;;;;;;6.22;3.00;;;;;;;;;;4974033;28;20033;-69
2022/06/04 13:03:41;;;;;;;3.80;2.50;;;;;;;;;;4980611;28;20361;-70
2022/06/04 13:06:12;;;;;;;4.60;2.80;;;;;;;;;;4979634;28;20085;-70
2022/06/04 13:08:37;;;;;;;2.47;2.28;;;;;;;;;;4977632;28;20022;-69
2022/06/04 13:11:28;;;;;;;2.45;2.20;;;;;;;;;;4982346;28;20026;-70
2022/06/04 13:14:09;;;;;;;4.13;2.70;;;;;;;;;;4988711;28;20026;-70
2022/06/04 13:16:45;;;;;;;2.53;2.33;;;;;;;;;;4987549;28;20030;-70
2022/06/04 13:19:30;;;;;;;4.05;2.40;;;;;;;;;;4990452;28;20037;-71
2022/06/04 13:21:58;;;;;;;2.72;2.10;;;;;;;;;;4978843;28;20035;-71
2022/06/04 13:24:24;;;;;;;3.83;2.30;;;;;;;;;;4980183;28;20763;-71
2022/06/04 13:26:52;;;;;;;2.70;2.25;;;;;;;;;;4980974;28;20026;-72
2022/06/04 13:29:18;;;;;;;;;;;;;;;;;;4976118;28;20169;-73
2022/06/04 13:31:50;;;;;;;2.50;2.17;;;;;;;;;;4988550;28;20044;-72
2022/06/04 13:34:20;;;;;;;2.85;2.55;;;;;;;;;;4978114;28;20457;-71
2022/06/04 13:36:48;;;;;;;3.97;2.33;;;;;;;;;;4988818;28;20041;-69
2022/06/04 13:39:17;;;;;;;3.47;1.92;;;;;;;;;;4991150;28;20062;-70
2022/06/04 13:42:02;;;;;;;3.08;2.42;;;;;;;;;;4989364;28;20377;-69
2022/06/04 13:44:27;;;;;;;3.45;2.55;;;;;;;;;;4989655;28;20018;-69
2022/06/04 13:47:14;;;;;;;2.30;2.10;;;;;;;;;;4992444;28;20032;-71
2022/06/04 13:49:40;;;;;;;2.63;1.80;;;;;;;;;;4987769;28;20264;-69
2022/06/04 13:52:10;;;;;;;2.63;2.33;;;;;;;;;;4989547;28;20037;-68
2022/06/04 13:54:37;;;;;;;2.88;2.42;;;;;;;;;;4985332;28;20078;-68
2022/06/04 13:57:22;;;;;;;2.40;2.17;;;;;;;;;;4988754;28;20074;-71
2022/06/04 13:59:48;;;;;;;2.45;2.25;;;;;;;;;;4974496;28;20029;-69
2022/06/04 14:02:18;;;;;;;4.53;2.35;;;;;;;;;;4979808;28;20038;-69
2022/06/04 14:07:35;;;;;;;2.80;2.58;;;;;;;;;;4978513;28;20030;-70
2022/06/04 14:10:01;;;;;;;3.45;2.40;;;;;;;;;;4988000;28;20045;-71
2022/06/04 14:12:44;;;;;;;5.00;2.15;;;;;;;;;;4984511;28;20030;-70
2022/06/04 14:15:21;;;;;;;2.65;2.22;;;;;;;;;;4974543;28;20063;-74
2022/06/04 14:17:47;;;;;;;3.42;2.45;;;;;;;;;;4990245;28;20453;-72
2022/06/04 14:20:17;;;;;;;3.60;2.20;;;;;;;;;;4987966;28;20038;-71
2022/06/04 14:23:01;;;;;;;3.88;2.92;;;;;;;;;;4989692;28;20266;-70
2022/06/04 14:25:26;;;;;;;5.55;2.90;;;;;;;;;;4976115;28;20125;-70
2022/06/04 14:28:10;;;;;;;5.10;3.67;;;;;;;;;;4980883;28;20101;-70
2022/06/04 14:30:56;;;;;;;4.90;3.47;;;;;;;;;;4987735;28;20363;-71
2022/06/04 14:33:23;;;;;;;6.50;4.22;;;;;;;;;;4988514;28;20571;-71
2022/06/04 14:36:00;;;;;;;5.82;4.40;;;;;;;;;;4988402;28;20041;-70
2022/06/04 14:38:25;;;;;;;7.00;4.97;;;;;;;;;;4987922;28;20029;-73
2022/06/04 14:41:05;;;;;;;6.95;5.07;;;;;;;;;;4970809;28;20033;-72
2022/06/04 14:43:39;;;;;;;6.85;4.47;;;;;;;;;;4970558;28;20113;-71
2022/06/04 14:46:11;;;;;;;6.32;4.07;;;;;;;;;;4988348;28;20034;-69
2022/06/04 14:48:49;;;;;;;6.18;3.35;;;;;;;;;;4986784;28;20030;-70
2022/06/04 14:51:17;;;;;;;5.50;4.38;;;;;;;;;;4987637;28;20053;-70
2022/06/04 14:53:42;;;;;;;;;;;;;;;;;;4986319;28;20044;-73
2022/06/04 14:56:16;;;;;;;4.93;3.67;;;;;;;;;;4988088;28;20265;-70
2022/06/04 14:58:42;;;;;;;4.38;3.60;;;;;;;;;;4989619;28;20018;-74
2022/06/04 15:01:07;;;;;;;6.65;3.85;;;;;;;;;;4976575;28;20030;-70
2022/06/04 15:03:32;;;;;;;5.77;3.70;;;;;;;;;;4989626;28;20032;-69
2022/06/04 15:06:02;;;;;;;5.57;3.92;;;;;;;;;;4991832;28;20268;-69
2022/06/04 15:08:39;;;;;;;5.53;4.32;;;;;;;;;;4985350;28;20053;-70
2022/06/04 15:11:12;;;;;;;7.55;3.97;;;;;;;;;;4990700;28;20456;-73
2022/06/04 15:13:41;;;;;;;7.78;4.30;;;;;;;;;;4986605;28;20026;-68
2022/06/04 15:16:07;;;;;;;;;;;;;;;;;;4987786;28;20331;-68
2022/06/04 15:18:32;;;;;;;4.25;3.55;;;;;;;;;;4989779;28;19920;-69